Denver, Colorado
Traffic Map
Current Weather Conditions
Denver, Colorado
Broken Clouds
Broken Clouds
78°
Feels Like: 78°
Wind Chill: 78° Ceiling: 20000
Heat Index: 78° Visibility: 10mi
Dew Point: 45° Wind: 3mph
Humidity: 32% Direction: 60° (ENE)
Pressure: 30.13in Gusts: 0mph
Raw Report DataKBKF 251458Z 06003KT 10SM FEW090 SCT130 BKN200 25/07 A3013 RMK AO2A SLP121 T02540074 52010
Traffic Incident Summary
Active as of:
Severity:
Category:
InformationThere was an issue retrieving the traffic information for this location. Please try a different location or try again shortly.
Advertisements
Track Severe Weather on mobile